Time;durP1;ratioP1;P1;durP2;ratioP2;P2;SDS_P1;SDS_P2;PMS_P1;PMS_P2;Temp;Humidity;BMP_temperature;BMP_pressure;BME280_temperature;BME280_humidity;BME280_pressure;Samples;Min_cycle;Max_cycle;Signal;HPM_P1;HPM_P2
2022/04/21 00:01:37;;;;;;;11.10;9.18;;;;;;;9.25;nan;101384.34;5052258;28;20102;-50
2022/04/21 00:04:02;;;;;;;10.63;9.55;;;;;;;9.42;nan;101420.84;5052247;28;20037;-48
2022/04/21 00:06:28;;;;;;;9.35;8.40;;;;;;;9.38;nan;101416.53;5052164;28;20471;-50
2022/04/21 00:08:54;;;;;;;11.27;8.75;;;;;;;9.21;nan;101390.56;5067346;28;20037;-50
2022/04/21 00:11:19;;;;;;;13.20;9.60;;;;;;;9.32;nan;101414.88;5052322;28;20037;-50
2022/04/21 00:13:44;;;;;;;15.07;9.23;;;;;;;9.27;nan;101416.72;5052160;28;20033;-48
2022/04/21 00:16:10;;;;;;;10.95;8.13;;;;;;;8.59;nan;101296.28;5051926;28;20037;-49
2022/04/21 00:18:35;;;;;;;9.93;8.73;;;;;;;9.18;nan;101397.63;5051509;28;20459;-54
2022/04/21 00:21:01;;;;;;;10.20;8.85;;;;;;;9.21;nan;101408.09;5050336;28;20041;-54
2022/04/21 00:23:27;;;;;;;11.15;8.48;;;;;;;9.19;nan;101404.63;5051843;28;20036;-56
2022/04/21 00:25:58;;;;;;;11.55;8.73;;;;;;;9.12;nan;101405.63;5067528;28;20037;-52
2022/04/21 00:28:24;;;;;;;11.27;8.85;;;;;;;8.68;nan;101338.13;5050385;28;20384;-49
2022/04/21 00:30:50;;;;;;;11.15;9.13;;;;;;;9.04;nan;101414.50;5051813;28;20033;-53
2022/04/21 00:33:15;;;;;;;14.77;8.90;;;;;;;8.76;nan;101355.47;5050707;28;20188;-53
2022/04/21 00:35:41;;;;;;;12.25;8.85;;;;;;;8.92;nan;101393.72;5051729;28;20090;-56
2022/04/21 00:38:06;;;;;;;10.88;9.50;;;;;;;8.94;nan;101399.78;5051636;28;20033;-52
2022/04/21 00:40:32;;;;;;;9.93;8.40;;;;;;;8.87;nan;101392.91;5051635;28;20041;-52
2022/04/21 00:43:00;;;;;;;12.43;9.55;;;;;;;8.65;nan;101357.41;5067101;28;20025;-48
2022/04/21 00:45:26;;;;;;;9.90;8.90;;;;;;;8.81;nan;101384.28;5051646;28;20033;-49
2022/04/21 00:47:52;;;;;;;9.80;8.80;;;;;;;8.83;nan;101395.63;5051761;28;20041;-52
2022/04/21 00:50:24;;;;;;;12.25;9.68;;;;;;;8.37;nan;101322.88;5067270;28;20052;-48
2022/04/21 00:52:50;;;;;;;10.20;9.10;;;;;;;8.52;nan;101352.41;5051635;28;20064;-51
2022/04/21 00:55:16;;;;;;;10.50;9.27;;;;;;;8.72;nan;101397.56;5050258;28;20032;-51
2022/04/21 00:57:43;;;;;;;9.93;8.93;;;;;;;8.56;nan;101369.81;5050232;28;20033;-49
2022/04/21 01:00:10;;;;;;;11.50;9.68;;;;;;;8.27;nan;101330.88;5051437;28;20491;-51
2022/04/21 01:02:49;;;;;;;10.40;9.23;;;;;;;8.65;nan;101388.03;5055277;28;20043;-53
2022/04/21 01:05:29;;;;;;;11.48;9.40;;;;;;;8.61;nan;101386.38;5055207;28;20029;-51
2022/04/21 01:07:59;;;;;;;11.23;8.53;;;;;;;8.64;nan;101396.81;5055273;28;20048;-53
2022/04/21 01:10:26;;;;;;;11.23;9.00;;;;;;;8.60;nan;101387.25;5054016;28;20035;-51
2022/04/21 01:12:52;;;;;;;10.82;9.30;;;;;;;8.24;nan;101334.41;5055189;28;20432;-55
2022/04/21 01:15:17;;;;;;;12.15;9.70;;;;;;;8.53;nan;101396.97;5070616;28;20068;-49
2022/04/21 01:17:42;;;;;;;11.68;9.77;;;;;;;8.44;nan;101386.59;5054707;28;20039;-48
2022/04/21 01:20:11;;;;;;;10.68;9.38;;;;;;;8.12;nan;101328.47;5054541;28;20069;-52
2022/04/21 01:22:37;;;;;;;11.43;8.70;;;;;;;8.37;nan;101379.72;5053576;28;20029;-51
2022/04/21 01:25:03;;;;;;;10.93;8.98;;;;;;;8.38;nan;101387.56;5055025;28;20033;-51
2022/04/21 01:27:33;;;;;;;15.20;9.70;;;;;;;8.36;nan;101383.22;5053716;28;20434;-53
2022/04/21 01:30:00;;;;;;;9.85;8.85;;;;;;;8.01;nan;101330.38;5054835;28;20033;-56
2022/04/21 01:32:26;;;;;;;10.05;8.25;;;;;;;8.35;nan;101391.97;5053792;28;20037;-48
2022/04/21 01:34:51;;;;;;;10.82;9.65;;;;;;;8.33;nan;101389.38;5055277;28;20066;-50
2022/04/21 01:42:44;;;;;;;9.20;8.30;;;;;;;7.98;nan;101333.91;5054959;28;20051;-53
2022/04/21 01:45:10;;;;;;;11.52;9.15;;;;;;;8.24;nan;101380.75;5054829;28;20041;-48
2022/04/21 01:47:35;;;;;;;11.80;10.60;;;;;;;7.92;nan;101326.13;5054391;28;20040;-54
2022/04/21 01:50:07;;;;;;;11.93;8.70;;;;;;;8.17;nan;101379.94;5054529;28;20048;-53
2022/04/21 01:52:32;;;;;;;12.35;8.98;;;;;;;8.10;nan;101380.94;5069335;28;20036;-50
2022/04/21 01:54:58;;;;;;;12.20;9.40;;;;;;;7.79;nan;101330.66;5054362;28;20033;-47
2022/04/21 01:57:23;;;;;;;14.13;9.35;;;;;;;7.95;nan;101373.28;5053363;28;20072;-50
2022/04/21 01:59:51;;;;;;;11.80;8.88;;;;;;;7.96;nan;101377.66;5054081;28;20476;-49
2022/04/21 02:02:17;;;;;;;11.40;9.85;;;;;;;7.93;nan;101373.31;5069549;28;20033;-49
2022/04/21 02:04:42;;;;;;;11.57;8.95;;;;;;;7.90;nan;101369.88;5069894;28;20128;-49
2022/04/21 02:07:07;;;;;;;12.13;9.80;;;;;;;7.88;nan;101379.50;5053214;28;20033;-49
2022/04/21 02:09:33;;;;;;;9.75;8.57;;;;;;;7.53;nan;101317.03;5054239;28;20124;-55
2022/04/21 02:11:58;;;;;;;13.15;9.23;;;;;;;7.83;nan;101369.06;5053920;28;20032;-53
2022/04/21 02:14:23;;;;;;;10.90;9.80;;;;;;;7.53;nan;101324.06;5054199;28;20044;-47
2022/04/21 02:16:49;;;;;;;9.80;8.80;;;;;;;7.77;nan;101370.88;5054088;28;20033;-49
2022/04/21 02:19:14;;;;;;;11.68;9.10;;;;;;;7.73;nan;101363.97;5053574;28;20403;-48
2022/04/21 02:21:39;;;;;;;12.65;9.98;;;;;;;7.72;nan;101359.59;5054074;28;20045;-55
2022/04/21 02:24:05;;;;;;;13.15;9.73;;;;;;;7.70;nan;101361.38;5054034;28;20037;-51
2022/04/21 02:26:31;;;;;;;13.40;9.45;;;;;;;7.67;nan;101362.28;5053682;28;20041;-49
2022/04/21 02:28:56;;;;;;;12.32;9.93;;;;;;;7.50;nan;101343.25;5053848;28;20076;-48
2022/04/21 02:31:21;;;;;;;12.30;9.82;;;;;;;7.35;nan;101318.13;5053864;28;20044;-49
2022/04/21 02:33:47;;;;;;;10.55;9.43;;;;;;;7.32;nan;101312.94;5053762;28;20033;-48
2022/04/21 02:36:12;;;;;;;10.93;9.60;;;;;;;7.43;nan;101341.63;5053922;28;20071;-50
2022/04/21 02:38:37;;;;;;;12.38;9.45;;;;;;;7.22;nan;101321.78;5053642;28;20035;-50
2022/04/21 02:41:04;;;;;;;13.20;10.40;;;;;;;7.46;nan;101356.44;5068928;28;20043;-49
2022/04/21 02:43:29;;;;;;;12.00;9.63;;;;;;;7.18;nan;101306.97;5053531;28;20045;-50
2022/04/21 02:45:54;;;;;;;11.15;9.75;;;;;;;7.42;nan;101352.09;5052273;28;20033;-51
2022/04/21 02:48:20;;;;;;;12.13;10.13;;;;;;;7.38;nan;101357.38;5053321;28;20037;-53
2022/04/21 02:50:48;;;;;;;10.10;8.80;;;;;;;7.06;nan;101311.50;5068827;28;20073;-51
2022/04/21 02:53:13;;;;;;;11.43;8.90;;;;;;;7.15;nan;101330.56;5052361;28;20029;-52
2022/04/21 02:58:23;;;;;;;12.88;8.98;;;;;;;7.28;nan;101361.00;5053457;28;20067;-53
2022/04/21 03:00:49;;;;;;;11.85;9.65;;;;;;;7.06;nan;101324.59;5053240;28;20049;-50
2022/04/21 03:03:14;;;;;;;10.57;9.48;;;;;;;7.05;nan;101326.31;5068622;28;20032;-51
2022/04/21 03:05:39;;;;;;;12.85;9.93;;;;;;;7.20;nan;101348.88;5053101;28;20055;-57
2022/04/21 03:08:05;;;;;;;11.15;9.70;;;;;;;6.95;nan;101313.31;5053064;28;20456;-51
2022/04/21 03:10:32;;;;;;;12.77;9.93;;;;;;;7.13;nan;101342.81;5053206;28;20029;-47
2022/04/21 03:12:58;;;;;;;11.88;10.07;;;;;;;7.18;nan;101353.25;5051690;28;20037;-54
2022/04/21 03:15:24;;;;;;;12.27;9.20;;;;;;;6.89;nan;101306.41;5052842;28;20032;-49
2022/04/21 03:17:49;;;;;;;11.80;9.73;;;;;;;6.83;nan;101298.63;5068208;28;20036;-51
2022/04/21 03:24:19;;;;;;;10.20;9.07;;;;;;;6.76;nan;101294.34;5052362;28;20057;-50
2022/04/21 03:25:44;;;;;;;12.13;10.15;;;;;;;7.06;nan;101343.78;5052987;28;20514;-54
2022/04/21 03:28:10;;;;;;;11.75;9.32;;;;;;;6.67;nan;101284.84;5053090;28;20029;-51
2022/04/21 03:30:35;;;;;;;11.40;9.27;;;;;;;6.58;nan;101281.44;5052656;28;20060;-52
2022/04/21 03:33:01;;;;;;;10.75;9.27;;;;;;;6.99;nan;101357.78;5052719;28;20492;-54
2022/04/21 03:35:26;;;;;;;10.25;9.13;;;;;;;6.97;nan;101356.94;5052550;28;20483;-53
2022/04/21 03:37:52;;;;;;;10.90;9.73;;;;;;;6.60;nan;101297.97;5052598;28;20132;-54
2022/04/21 03:40:17;;;;;;;14.25;9.25;;;;;;;6.97;nan;101356.94;5052439;28;20079;-50
2022/04/21 03:42:43;;;;;;;11.00;9.65;;;;;;;6.56;nan;101288.44;5052524;28;20507;-48
2022/04/21 03:45:08;;;;;;;13.57;9.40;;;;;;;6.58;nan;101302.34;5052634;28;20100;-53
2022/04/21 03:47:34;;;;;;;11.88;9.60;;;;;;;6.87;nan;101360.53;5052135;28;20048;-52
2022/04/21 03:49:59;;;;;;;12.20;10.05;;;;;;;6.44;nan;101304.22;5052481;28;20468;-56
2022/04/21 03:52:25;;;;;;;10.65;9.55;;;;;;;6.75;nan;101363.25;5052373;28;20120;-50
2022/04/21 03:54:50;;;;;;;10.93;9.77;;;;;;;6.67;nan;101350.22;5052217;28;20033;-53
2022/04/21 03:57:15;;;;;;;10.70;9.27;;;;;;;6.65;nan;101353.75;5052433;28;20037;-50
2022/04/21 03:59:41;;;;;;;12.77;9.15;;;;;;;6.62;nan;101348.53;5052086;28;20165;-48
2022/04/21 04:02:06;;;;;;;13.18;9.60;;;;;;;6.22;nan;101287.81;5052219;28;20041;-51
2022/04/21 04:04:33;;;;;;;11.00;9.88;;;;;;;6.31;nan;101303.44;5052268;28;20033;-49
2022/04/21 04:12:31;;;;;;;15.30;9.75;;;;;;;6.14;nan;101289.63;5052440;28;20469;-48
2022/04/21 04:14:57;;;;;;;10.90;9.63;;;;;;;6.44;nan;101348.69;5050831;28;20029;-51
2022/04/21 04:17:22;;;;;;;12.27;10.27;;;;;;;6.38;nan;101349.59;5067552;28;20396;-49
2022/04/21 04:19:47;;;;;;;12.13;10.45;;;;;;;6.35;nan;101352.22;5051669;28;20129;-49
2022/04/21 04:22:14;;;;;;;13.65;10.13;;;;;;;5.96;nan;101287.13;5051978;28;20468;-48
2022/04/21 04:24:40;;;;;;;12.43;9.93;;;;;;;6.31;nan;101349.63;5051853;28;20037;-51
2022/04/21 04:27:05;;;;;;;10.70;9.35;;;;;;;6.28;nan;101347.91;5051869;28;20392;-48
2022/04/21 04:29:30;;;;;;;10.80;8.98;;;;;;;5.91;nan;101287.19;5051962;28;20152;-49
2022/04/21 04:31:57;;;;;;;11.30;10.10;;;;;;;5.90;nan;101274.09;5067408;28;20166;-49
2022/04/21 04:34:23;;;;;;;10.23;9.15;;;;;;;6.29;nan;101352.28;5052270;28;20040;-48
2022/04/21 04:36:48;;;;;;;11.55;8.75;;;;;;;5.88;nan;101284.59;5056018;28;20037;-52
2022/04/21 04:39:15;;;;;;;10.88;9.15;;;;;;;6.11;nan;101323.63;5071418;28;20033;-50
2022/04/21 04:44:25;;;;;;;11.30;9.38;;;;;;;6.05;nan;101307.97;5069263;28;20549;-49
2022/04/21 04:46:50;;;;;;;11.10;9.40;;;;;;;6.40;nan;101370.47;5055652;28;20056;-48
2022/04/21 04:49:16;;;;;;;11.68;10.27;;;;;;;6.32;nan;101344.41;5054453;28;20476;-47
2022/04/21 04:51:42;;;;;;;15.77;9.40;;;;;;;6.07;nan;101293.19;5055769;28;20029;-49
2022/04/21 04:54:09;;;;;;;11.60;9.32;;;;;;;6.44;nan;101357.41;5055828;28;20037;-51
2022/04/21 04:56:35;;;;;;;11.90;8.55;;;;;;;6.47;nan;101348.66;5055531;28;20029;-50
2022/04/21 04:59:01;;;;;;;10.10;8.98;;;;;;;6.32;nan;101328.72;5055420;28;20044;-48
2022/04/21 05:01:29;;;;;;;11.25;9.30;;;;;;;6.51;nan;101350.38;5055484;28;20040;-49
2022/04/21 05:04:04;;;;;;;11.55;8.50;;;;;;;6.63;nan;101355.50;5054156;28;20090;-47
2022/04/21 05:06:36;;;;;;;10.88;8.77;;;;;;;6.60;nan;101345.91;5055427;28;20033;-49
2022/04/21 05:09:03;;;;;;;14.80;9.95;;;;;;;6.33;nan;101293.88;5055349;28;20120;-49
2022/04/21 05:11:28;;;;;;;10.98;8.50;;;;;;;6.77;nan;101359.72;5054189;28;20074;-49
2022/04/21 05:13:54;;;;;;;11.52;9.35;;;;;;;6.45;nan;101295.50;5055140;28;20044;-51
2022/04/21 05:16:20;;;;;;;11.18;8.45;;;;;;;6.50;nan;101296.34;5070606;28;20095;-47
2022/04/21 05:18:45;;;;;;;10.65;9.48;;;;;;;6.93;nan;101360.47;5054906;28;20079;-51
2022/04/21 05:21:11;;;;;;;10.10;8.63;;;;;;;6.99;nan;101362.16;5054717;28;20033;-51
2022/04/21 05:23:38;;;;;;;14.10;9.52;;;;;;;7.07;nan;101370.78;5055044;28;20033;-47
2022/04/21 05:26:03;;;;;;;10.02;8.82;;;;;;;7.11;nan;101356.81;5053879;28;20401;-49
2022/04/21 05:28:30;;;;;;;9.98;8.13;;;;;;;7.24;nan;101372.38;5053661;28;20090;-49
2022/04/21 05:30:58;;;;;;;10.40;8.68;;;;;;;6.94;nan;101303.75;5054842;28;20483;-49
2022/04/21 05:33:25;;;;;;;11.45;8.60;;;;;;;7.05;nan;101315.84;5053729;28;20032;-51
2022/04/21 05:35:51;;;;;;;9.60;8.65;;;;;;;7.45;nan;101370.41;5054736;28;20032;-48
2022/04/21 05:38:19;;;;;;;12.27;8.27;;;;;;;7.16;nan;101302.63;5053516;28;20082;-50
2022/04/21 05:40:44;;;;;;;9.93;8.93;;;;;;;7.04;nan;101295.78;5054799;28;20044;-47
2022/04/21 05:43:12;;;;;;;11.27;8.52;;;;;;;7.43;nan;101323.28;5054582;28;20033;-47
2022/04/21 05:45:38;;;;;;;10.98;8.88;;;;;;;7.80;nan;101369.09;5054749;28;20029;-46
2022/04/21 05:48:05;;;;;;;12.80;8.10;;;;;;;8.00;nan;101378.47;5069082;28;20526;-50
2022/04/21 05:50:31;;;;;;;9.20;8.18;;;;;;;8.14;nan;101379.16;5054568;28;20028;-51
2022/04/21 05:52:58;;;;;;;14.45;8.85;;;;;;;8.23;nan;101382.50;5054403;28;20376;-51
2022/04/21 05:55:24;;;;;;;12.02;8.50;;;;;;;8.42;nan;101380.50;5053277;28;20361;-52
2022/04/21 05:57:50;;;;;;;15.07;9.20;;;;;;;8.51;nan;101382.13;5053280;28;20395;-54
2022/04/21 06:00:15;;;;;;;12.57;8.02;;;;;;;8.64;nan;101384.53;5069751;28;20037;-53
2022/04/21 06:02:42;;;;;;;10.65;7.97;;;;;;;8.80;nan;101398.28;5054774;28;20159;-48
2022/04/21 06:05:08;;;;;;;10.15;8.02;;;;;;;8.93;nan;101387.53;5054761;28;20040;-49
2022/04/21 06:07:34;;;;;;;12.00;7.20;;;;;;;9.08;nan;101389.03;5054307;28;20029;-48
2022/04/21 06:10:00;;;;;;;10.18;7.18;;;;;;;9.26;nan;101395.72;5054394;28;20041;-48
2022/04/21 06:12:26;;;;;;;8.52;6.93;;;;;;;9.11;nan;101349.59;5054484;28;20037;-47
2022/04/21 06:14:52;;;;;;;9.73;6.93;;;;;;;9.55;nan;101396.06;5052894;28;20044;-52
2022/04/21 06:17:18;;;;;;;9.05;6.90;;;;;;;9.66;nan;101399.34;5053045;28;20021;-51
2022/04/21 06:19:44;;;;;;;7.30;6.57;;;;;;;9.80;nan;101406.97;5053663;28;20068;-51
2022/04/21 06:22:09;;;;;;;8.27;6.60;;;;;;;9.93;nan;101393.53;5052623;28;20396;-51
2022/04/21 06:24:35;;;;;;;10.40;6.57;;;;;;;9.91;nan;101376.94;5054250;28;20029;-47
2022/04/21 06:27:02;;;;;;;7.68;6.57;;;;;;;10.12;nan;101407.16;5054230;28;20032;-53
2022/04/21 06:29:27;;;;;;;10.13;7.85;;;;;;;10.26;nan;101404.25;5053852;28;20029;-48
2022/04/21 06:31:53;;;;;;;8.15;6.47;;;;;;;10.34;nan;101407.56;5069350;28;20044;-52
2022/04/21 06:34:18;;;;;;;10.73;6.65;;;;;;;10.12;nan;101341.41;5053957;28;20037;-56
2022/04/21 06:36:43;;;;;;;11.07;7.05;;;;;;;10.52;nan;101405.41;5069067;28;20112;-52
2022/04/21 06:39:09;;;;;;;6.57;5.88;;;;;;;10.62;nan;101413.97;5053526;28;20128;-56
2022/04/21 06:41:35;;;;;;;7.28;6.57;;;;;;;10.61;nan;101407.81;5053612;28;20025;-53
2022/04/21 06:49:28;;;;;;;6.95;5.10;;;;;;;10.97;nan;101413.13;5053515;28;20090;-49
2022/04/21 06:51:53;;;;;;;8.07;5.75;;;;;;;11.09;nan;101397.00;5052659;28;20544;-54
2022/04/21 06:54:18;;;;;;;6.15;5.50;;;;;;;11.24;nan;101408.00;5053669;28;20037;-54
2022/04/21 06:56:48;;;;;;;6.45;5.72;;;;;;;11.27;nan;101410.53;5068905;28;20051;-47
2022/04/21 06:59:17;;;;;;;7.43;5.82;;;;;;;11.48;nan;101401.19;5050676;28;20033;-48
2022/04/21 07:01:43;;;;;;;6.03;5.43;;;;;;;11.72;nan;101397.06;5052155;28;20466;-47
2022/04/21 07:04:08;;;;;;;7.15;5.82;;;;;;;12.17;nan;101400.16;5053243;28;20033;-48
2022/04/21 07:06:33;;;;;;;7.68;4.93;;;;;;;12.85;nan;101409.41;5051770;28;20048;-52
2022/04/21 07:08:59;;;;;;;6.03;5.00;;;;;;;13.47;nan;101425.81;5053230;28;20040;-49
2022/04/21 07:11:24;;;;;;;6.25;4.80;;;;;;;13.79;nan;101398.22;5051869;28;20040;-52
2022/04/21 07:13:51;;;;;;;5.40;4.90;;;;;;;13.85;nan;101384.75;5053106;28;20162;-50
2022/04/21 07:16:17;;;;;;;8.20;5.18;;;;;;;14.56;nan;101429.69;5052625;28;20545;-50
2022/04/21 07:18:42;;;;;;;6.15;4.88;;;;;;;14.89;nan;101431.91;5050378;28;20060;-46
2022/04/21 07:21:09;;;;;;;6.38;5.10;;;;;;;15.17;nan;101437.81;5048910;28;20035;-48
2022/04/21 07:23:35;;;;;;;5.40;4.90;;;;;;;15.48;nan;101434.75;5051901;28;20033;-48
2022/04/21 07:26:01;;;;;;;6.03;4.95;;;;;;;15.62;nan;101441.19;5051727;28;20128;-48
2022/04/21 07:28:26;;;;;;;4.88;4.47;;;;;;;15.62;nan;101432.34;5051277;28;20037;-49
2022/04/21 07:30:52;;;;;;;4.97;4.47;;;;;;;15.68;nan;101440.91;5051328;28;20521;-48
2022/04/21 07:33:18;;;;;;;5.25;4.75;;;;;;;15.47;nan;101411.81;5052341;28;20040;-52
2022/04/21 07:35:43;;;;;;;5.93;5.00;;;;;;;15.99;nan;101431.59;5051391;28;20029;-52
2022/04/21 07:38:09;;;;;;;5.18;4.65;;;;;;;16.33;nan;101435.28;5052148;28;20033;-47
2022/04/21 07:40:36;;;;;;;8.30;5.28;;;;;;;16.59;nan;101438.53;5067592;28;20435;-47
2022/04/21 07:43:07;;;;;;;4.75;4.25;;;;;;;16.66;nan;101394.78;5052201;28;20078;-51
2022/04/21 07:45:33;;;;;;;6.15;4.50;;;;;;;16.70;nan;101357.31;5066429;28;20033;-50
2022/04/21 07:47:58;;;;;;;5.13;4.65;;;;;;;17.39;nan;101419.44;5052621;28;20032;-52
2022/04/21 07:50:24;;;;;;;7.53;4.38;;;;;;;17.38;nan;101430.13;5052392;28;20037;-51
2022/04/21 07:55:34;;;;;;;4.22;3.83;;;;;;;17.26;nan;101374.88;5052468;28;20097;-52
2022/04/21 07:57:59;;;;;;;5.40;3.85;;;;;;;17.40;nan;101436.22;5052306;28;20041;-50
2022/04/21 08:00:24;;;;;;;5.32;3.85;;;;;;;17.27;nan;101369.50;5051958;28;20102;-48
2022/04/21 08:02:50;;;;;;;6.22;3.72;;;;;;;17.19;nan;101434.69;5051740;28;20041;-49
2022/04/21 08:05:18;;;;;;;5.80;3.90;;;;;;;16.86;nan;101381.38;5050975;28;20044;-52
2022/04/21 08:07:44;;;;;;;5.25;4.10;;;;;;;17.64;nan;101442.13;5052018;28;20162;-53
2022/04/21 08:10:10;;;;;;;3.97;3.65;;;;;;;17.63;nan;101381.84;5050410;28;20037;-53
2022/04/21 08:12:39;;;;;;;4.53;3.60;;;;;;;18.63;nan;101441.16;5050871;28;20060;-49
2022/04/21 08:15:06;;;;;;;6.30;4.28;;;;;;;18.62;nan;101444.78;5052108;28;20369;-52
2022/04/21 08:17:31;;;;;;;5.93;4.55;;;;;;;18.12;nan;101388.94;5067432;28;20158;-48
2022/04/21 08:19:57;;;;;;;5.60;4.10;;;;;;;18.61;nan;101440.41;5033962;28;20075;-52
2022/04/21 08:22:22;;;;;;;6.53;3.78;;;;;;;18.85;nan;101446.16;5050540;28;20458;-52
2022/04/21 08:33:07;;;;;;;6.03;3.92;;;;;;;19.18;nan;101446.84;5043458;28;20044;-50
2022/04/21 08:35:32;;;;;;;4.28;3.55;;;;;;;19.47;nan;101410.44;5052720;28;20047;-48
2022/04/21 08:37:57;;;;;;;6.50;4.20;;;;;;;19.38;nan;101451.88;5051930;28;20029;-48
2022/04/21 08:40:24;;;;;;;5.18;4.22;;;;;;;18.83;nan;101435.56;5051729;28;20063;-49
2022/04/21 08:42:52;;;;;;;3.80;3.50;;;;;;;18.79;nan;101434.03;5051967;28;20037;-51
2022/04/21 08:45:18;;;;;;;4.25;3.85;;;;;;;19.05;nan;101451.19;5067189;28;20044;-49
2022/04/21 08:47:46;;;;;;;6.63;3.58;;;;;;;19.30;nan;101443.47;5050499;28;20502;-50
2022/04/21 08:50:14;;;;;;;5.20;3.90;;;;;;;19.49;nan;101425.47;5050559;28;20041;-49
2022/04/21 08:52:41;;;;;;;3.67;3.28;;;;;;;19.74;nan;101443.50;5066702;28;20499;-49
2022/04/21 08:55:07;;;;;;;3.50;3.20;;;;;;;20.11;nan;101440.28;5051739;28;20076;-50
2022/04/21 08:57:32;;;;;;;4.43;3.35;;;;;;;19.92;nan;101390.75;5051747;28;20717;-49
2022/04/21 09:00:01;;;;;;;3.15;2.85;;;;;;;20.44;nan;101418.63;5066898;28;20044;-50
2022/04/21 09:02:41;;;;;;;5.03;3.60;;;;;;;20.27;nan;101385.91;5066912;28;20083;-52
2022/04/21 09:05:08;;;;;;;3.97;3.15;;;;;;;20.73;nan;101430.97;5051444;28;20131;-52
2022/04/21 09:07:53;;;;;;;4.03;3.55;;;;;;;20.57;nan;101445.44;5066118;28;20041;-53
2022/04/21 09:10:20;;;;;;;4.72;4.20;;;;;;;20.54;nan;101432.28;5049838;28;20045;-49
2022/04/21 09:12:55;;;;;;;4.25;3.10;;;;;;;20.56;nan;101446.38;5051249;28;20039;-53
2022/04/21 09:15:23;;;;;;;3.67;3.38;;;;;;;20.66;nan;101431.47;5066688;28;20033;-51
2022/04/21 09:17:58;;;;;;;5.43;3.95;;;;;;;20.80;nan;101402.00;5051230;28;20065;-48
2022/04/21 09:20:26;;;;;;;4.47;3.15;;;;;;;21.22;nan;101411.69;5050916;28;20132;-50
2022/04/21 09:22:54;;;;;;;4.15;3.70;;;;;;;21.36;nan;101445.56;5054095;28;20025;-51
2022/04/21 09:25:52;;;;;;;6.18;3.58;;;;;;;21.34;nan;101429.59;5055099;28;20079;-52
2022/04/21 09:28:29;;;;;;;4.70;3.90;;;;;;;21.37;nan;101425.84;5064626;28;20049;-49
2022/04/21 09:30:56;;;;;;;4.03;3.70;;;;;;;21.44;nan;101422.66;5055127;28;20033;-49
2022/04/21 09:33:46;;;;;;;5.05;3.58;;;;;;;21.70;nan;101426.22;5053724;28;20029;-53
2022/04/21 09:36:13;;;;;;;5.55;3.50;;;;;;;21.96;nan;101421.75;5053807;28;20031;-49
2022/04/21 09:38:39;;;;;;;4.00;3.70;;;;;;;21.80;nan;101428.16;5054585;28;20066;-52
2022/04/21 09:41:06;;;;;;;3.28;2.97;;;;;;;21.64;nan;101419.47;5055280;28;20025;-48
2022/04/21 09:43:37;;;;;;;5.05;3.17;;;;;;;21.43;nan;101415.59;5054634;28;20116;-48
2022/04/21 09:46:22;;;;;;;4.15;3.28;;;;;;;21.71;nan;101426.13;5053474;28;20126;-50
2022/04/21 09:48:52;;;;;;;3.35;3.03;;;;;;;21.90;nan;101409.63;5054280;28;20459;-49
2022/04/21 09:51:25;;;;;;;3.92;3.05;;;;;;;22.27;nan;101414.09;5054876;28;20495;-51
2022/04/21 09:53:58;;;;;;;5.60;3.30;;;;;;;22.02;nan;101357.84;5054586;28;20396;-48
2022/04/21 09:56:32;;;;;;;3.88;3.10;;;;;;;22.10;nan;101354.59;5054487;28;20102;-48
2022/04/21 09:58:58;;;;;;;3.58;3.20;;;;;;;22.17;nan;101412.19;5054423;28;20037;-48
2022/04/21 10:01:24;;;;;;;3.55;2.80;;;;;;;21.94;nan;101345.97;5054411;28;20053;-50
2022/04/21 10:03:49;;;;;;;3.50;3.10;;;;;;;22.36;nan;101402.69;5054406;28;20064;-50
2022/04/21 10:06:16;;;;;;;3.70;3.35;;;;;;;22.84;nan;101408.16;5069791;28;20387;-48
2022/04/21 10:08:43;;;;;;;4.32;3.30;;;;;;;23.06;nan;101396.69;5054589;28;20025;-47
2022/04/21 10:11:09;;;;;;;3.60;2.80;;;;;;;22.89;nan;101406.84;5054499;28;20037;-48
2022/04/21 10:13:35;;;;;;;2.60;2.10;;;;;;;22.56;nan;101352.97;5054345;28;20563;-50
2022/04/21 10:16:00;;;;;;;2.78;2.50;;;;;;;22.61;nan;101326.66;5052850;28;20120;-50
2022/04/21 10:18:26;;;;;;;2.50;2.30;;;;;;;23.45;nan;101382.91;5053818;28;20047;-48
2022/04/21 10:20:57;;;;;;;2.28;2.03;;;;;;;23.46;nan;101387.31;5053943;28;20041;-47
2022/04/21 10:23:24;;;;;;;2.42;1.90;;;;;;;23.39;nan;101346.63;5054114;28;20036;-46
2022/04/21 10:26:03;;;;;;;2.72;2.10;;;;;;;23.97;nan;101383.19;5052728;28;20045;-49
2022/04/21 10:28:42;;;;;;;2.10;1.90;;;;;;;24.11;nan;101330.19;5053984;28;20071;-52
2022/04/21 10:31:29;;;;;;;3.33;2.38;;;;;;;23.86;nan;101325.88;5069461;28;20033;-48
2022/04/21 10:34:31;;;;;;;3.53;2.38;;;;;;;23.98;nan;101371.47;5053835;28;20033;-48
2022/04/21 10:37:20;;;;;;;3.25;2.67;;;;;;;24.39;nan;101367.31;5060089;28;20066;-49
2022/04/21 10:40:05;;;;;;;3.15;2.42;;;;;;;24.53;nan;101367.03;5068811;28;20029;-51
2022/04/21 10:42:52;;;;;;;4.00;2.90;;;;;;;23.90;nan;101362.31;5053711;28;20384;-50
2022/04/21 10:45:38;;;;;;;4.93;3.00;;;;;;;23.77;nan;101359.72;5053627;28;20112;-53
2022/04/21 10:48:07;;;;;;;3.97;2.80;;;;;;;23.82;nan;101353.97;5053235;28;20143;-49
2022/04/21 10:50:33;;;;;;;3.60;2.38;;;;;;;24.14;nan;101346.91;5053415;28;20033;-52
2022/04/21 10:58:33;;;;;;;3.55;2.40;;;;;;;24.66;nan;101354.28;5053259;28;20048;-55
2022/04/21 11:01:21;;;;;;;3.83;2.40;;;;;;;25.19;nan;101360.53;5053273;28;20123;-51
2022/04/21 11:04:04;;;;;;;4.07;1.98;;;;;;;25.30;nan;101355.13;5053254;28;20466;-48
2022/04/21 11:07:06;;;;;;;6.22;2.15;;;;;;;25.85;nan;101344.94;5053240;28;20125;-50
2022/04/21 11:09:46;;;;;;;2.20;2.08;;;;;;;25.67;nan;101340.19;5054772;28;20124;-45
2022/04/21 11:12:14;;;;;;;2.87;1.93;;;;;;;25.65;nan;101344.88;5068079;28;20040;-53
2022/04/21 11:14:39;;;;;;;3.63;1.90;;;;;;;24.97;nan;101331.03;5051863;28;20060;-46
2022/04/21 11:17:06;;;;;;;3.00;2.03;;;;;;;25.47;nan;101330.25;5053089;28;20554;-52
2022/04/21 11:19:40;;;;;;;2.42;1.90;;;;;;;25.85;nan;101313.44;5067998;28;20052;-52
2022/04/21 11:22:09;;;;;;;1.65;1.55;;;;;;;24.54;nan;101328.38;5052938;28;20131;-52
2022/04/21 11:24:59;;;;;;;1.80;1.70;;;;;;;24.39;nan;101325.13;5052966;28;20486;-53
2022/04/21 11:27:26;;;;;;;1.92;1.67;;;;;;;25.06;nan;101269.16;5053015;28;20025;-48
2022/04/21 11:29:51;;;;;;;2.28;1.80;;;;;;;24.76;nan;101268.19;5052736;28;20024;-47
2022/04/21 11:32:17;;;;;;;1.40;1.30;;;;;;;25.47;nan;101279.03;5052733;28;20025;-52
2022/04/21 11:35:06;;;;;;;2.97;1.58;;;;;;;26.33;nan;101323.56;5052795;28;20032;-48
2022/04/21 11:37:44;;;;;;;1.95;1.75;;;;;;;26.16;nan;101319.66;5067996;28;20064;-52
2022/04/21 11:40:28;;;;;;;2.58;1.65;;;;;;;25.98;nan;101311.34;5052592;28;20423;-48
2022/04/21 11:42:54;;;;;;;3.33;1.58;;;;;;;25.87;nan;101313.28;5052507;28;20048;-49
2022/04/21 11:45:27;;;;;;;1.63;1.52;;;;;;;26.46;nan;101321.44;5051880;28;20028;-46
2022/04/21 11:47:53;;;;;;;2.38;2.00;;;;;;;26.35;nan;101305.38;5051026;28;20048;-49
2022/04/21 11:50:28;;;;;;;3.85;1.98;;;;;;;26.05;nan;101263.09;5052596;28;20468;-53
2022/04/21 11:52:55;;;;;;;3.40;1.10;;;;;;;26.43;nan;101243.44;5052259;28;20090;-52
2022/04/21 11:55:22;;;;;;;2.92;1.08;;;;;;;26.87;nan;101296.91;5052204;28;20036;-50
2022/04/21 11:57:48;;;;;;;2.58;0.98;;;;;;;26.48;nan;101305.94;5067822;28;20383;-48
2022/04/21 12:00:16;;;;;;;1.13;0.70;;;;;;;26.55;nan;101250.41;5052194;28;20036;-50
2022/04/21 12:08:13;;;;;;;6.82;1.73;;;;;;;27.64;nan;101296.75;5052278;28;20408;-50
2022/04/21 12:10:39;;;;;;;2.45;1.92;;;;;;;26.71;nan;101308.22;5052060;28;20480;-48
2022/04/21 12:13:04;;;;;;;3.35;1.80;;;;;;;26.60;nan;101294.00;5067660;28;20042;-46
2022/04/21 12:15:30;;;;;;;1.95;1.50;;;;;;;26.52;nan;101275.84;5050996;28;20186;-49
2022/04/21 12:18:02;;;;;;;2.60;2.10;;;;;;;26.45;nan;101263.88;5051824;28;20037;-49
2022/04/21 12:20:28;;;;;;;3.65;1.92;;;;;;;26.94;nan;101259.38;5051588;28;20424;-50
2022/04/21 12:22:54;;;;;;;2.90;2.00;;;;;;;26.86;nan;101251.97;5052020;28;20072;-53
2022/04/21 12:25:28;;;;;;;2.35;1.90;;;;;;;27.29;nan;101279.31;5050606;28;20029;-52
2022/04/21 12:27:54;;;;;;;5.65;2.40;;;;;;;27.11;nan;101275.69;5052052;28;20037;-47
2022/04/21 12:30:20;;;;;;;3.70;2.75;;;;;;;26.66;nan;101280.81;5067230;28;20031;-52
2022/04/21 12:32:47;;;;;;;3.45;2.60;;;;;;;26.95;nan;101274.56;5051852;28;20068;-48